Time;durP1;ratioP1;P1;durP2;ratioP2;P2;SDS_P1;SDS_P2;PMS_P1;PMS_P2;Temp;Humidity;BMP_temperature;BMP_pressure;BME280_temperature;BME280_humidity;BME280_pressure;Samples;Min_cycle;Max_cycle;Signal;HPM_P1;HPM_P2
2022/11/19 00:01:25;;;;;;;19.55;13.13;;;;;;;4.45;82.87;98685.28;4304504;33;34196;-73
2022/11/19 00:03:53;;;;;;;19.55;12.95;;;;;;;5.02;81.00;98690.81;4290360;33;35000;-74
2022/11/19 00:06:22;;;;;;;19.17;13.27;;;;;;;5.26;79.71;98693.41;4276873;33;32656;-73
2022/11/19 00:08:50;;;;;;;21.92;14.45;;;;;;;5.61;78.34;98700.50;4276903;33;33628;-73
2022/11/19 00:14:07;;;;;;;19.95;13.90;;;;;;;5.39;79.07;98703.06;4279074;33;33962;-73
2022/11/19 00:16:35;;;;;;;20.05;13.68;;;;;;;5.12;79.96;98711.72;4276915;33;33410;-73
2022/11/19 00:19:02;;;;;;;19.20;13.25;;;;;;;5.54;77.97;98704.16;4289972;33;33850;-73
2022/11/19 00:21:30;;;;;;;18.95;13.30;;;;;;;5.68;77.87;98720.00;4289794;33;34344;-73
2022/11/19 00:23:57;;;;;;;20.30;13.88;;;;;;;5.10;79.33;98717.31;4289928;33;33937;-73
2022/11/19 00:26:25;;;;;;;22.40;13.35;;;;;;;5.10;79.76;98725.38;4276953;33;34642;-73
2022/11/19 00:28:53;;;;;;;20.98;13.60;;;;;;;5.09;79.11;98726.41;4289401;33;33890;-72
2022/11/19 00:31:21;;;;;;;21.65;13.65;;;;;;;4.50;80.78;98723.03;4277012;33;33887;-72
2022/11/19 00:33:49;;;;;;;20.90;14.20;;;;;;;4.22;81.89;98721.84;4276782;33;34719;-73
2022/11/19 00:36:17;;;;;;;20.45;13.73;;;;;;;4.71;81.04;98722.44;4289843;33;33604;-73
2022/11/19 00:38:44;;;;;;;21.30;14.40;;;;;;;4.73;80.36;98716.81;4289863;33;34501;-73
2022/11/19 00:41:12;;;;;;;22.70;14.35;;;;;;;4.54;82.03;98724.19;4290015;33;34184;-73
2022/11/19 00:43:51;;;;;;;22.87;15.43;;;;;;;4.45;81.39;98721.06;4289670;33;33514;-73
2022/11/19 00:46:21;;;;;;;23.45;13.98;;;;;;;4.63;81.22;98720.09;4288860;33;33545;-73
2022/11/19 00:48:50;;;;;;;24.48;15.05;;;;;;;4.64;80.85;98734.34;4289809;33;34982;-73
2022/11/19 00:51:18;;;;;;;21.95;14.55;;;;;;;4.06;83.13;98727.91;4276564;33;35074;-73
2022/11/19 00:53:46;;;;;;;23.00;14.85;;;;;;;4.23;81.73;98726.19;4276702;33;34091;-73
2022/11/19 00:56:15;;;;;;;23.27;15.80;;;;;;;4.45;81.22;98729.09;4276762;33;34545;-73
2022/11/19 00:58:43;;;;;;;24.52;14.82;;;;;;;4.42;80.77;98748.34;4276740;33;34605;-72
2022/11/19 01:01:12;;;;;;;21.55;14.13;;;;;;;4.50;80.70;98756.06;4290080;33;34293;-72
2022/11/19 01:03:41;;;;;;;23.10;14.48;;;;;;;4.37;80.28;98764.38;4279084;33;34979;-73
2022/11/19 01:06:08;;;;;;;23.30;14.98;;;;;;;4.62;78.72;98774.06;4304340;33;33949;-71
2022/11/19 01:08:42;;;;;;;23.05;15.15;;;;;;;4.56;78.96;98783.03;4304080;33;34490;-73
2022/11/19 01:11:16;;;;;;;24.60;14.48;;;;;;;4.54;78.50;98802.09;4304144;33;34340;-73
2022/11/19 01:13:44;;;;;;;22.45;14.95;;;;;;;4.68;78.31;98806.16;4304004;33;34217;-74
2022/11/19 01:16:36;;;;;;;23.40;15.07;;;;;;;4.43;78.88;98800.22;4304061;33;33783;-73
2022/11/19 01:19:05;;;;;;;24.48;15.73;;;;;;;4.22;79.27;98806.97;4291271;33;34003;-75
2022/11/19 01:21:34;;;;;;;24.15;15.20;;;;;;;4.27;79.05;98810.56;4289460;33;35167;-73
2022/11/19 01:24:03;;;;;;;21.45;13.77;;;;;;;4.20;79.31;98820.59;4289567;33;34225;-73
2022/11/19 01:26:31;;;;;;;23.90;15.00;;;;;;;4.21;79.33;98829.47;4276600;33;33843;-74
2022/11/19 01:28:58;;;;;;;23.55;14.50;;;;;;;3.74;80.41;98832.84;4276236;33;33225;-73
2022/11/19 01:31:27;;;;;;;22.23;14.05;;;;;;;4.00;79.99;98837.00;4276600;33;34139;-72
2022/11/19 01:33:55;;;;;;;22.98;14.63;;;;;;;3.95;80.24;98836.03;4276491;33;34279;-72
2022/11/19 01:36:28;;;;;;;26.73;16.70;;;;;;;4.21;79.15;98826.78;4286401;33;33571;-72
2022/11/19 01:38:56;;;;;;;27.92;17.10;;;;;;;3.72;81.91;98829.56;4290682;33;32293;-72
2022/11/19 01:41:29;;;;;;;28.15;17.20;;;;;;;3.36;83.24;98825.06;4290911;33;34191;-72
2022/11/19 01:44:02;;;;;;;25.48;16.50;;;;;;;3.51;82.15;98830.84;4290561;33;34628;-72
2022/11/19 01:46:32;;;;;;;27.83;17.02;;;;;;;3.46;82.20;98839.56;4290892;33;33715;-72
2022/11/19 01:49:05;;;;;;;26.00;16.23;;;;;;;3.89;80.37;98837.78;4290343;33;34579;-72
2022/11/19 01:51:57;;;;;;;26.12;15.07;;;;;;;3.85;80.54;98837.41;4289747;33;34117;-73
2022/11/19 01:54:44;;;;;;;23.52;15.43;;;;;;;3.72;80.31;98851.03;4290307;33;35023;-72
2022/11/19 01:57:13;;;;;;;28.77;17.30;;;;;;;3.84;79.63;98848.38;4290267;33;34506;-72
2022/11/19 01:59:42;;;;;;;25.70;15.80;;;;;;;3.81;79.48;98860.38;4305266;33;34799;-72
2022/11/19 02:02:09;;;;;;;25.37;15.25;;;;;;;3.68;80.03;98865.91;4292176;33;34248;-72
2022/11/19 02:04:38;;;;;;;26.08;15.70;;;;;;;3.82;79.01;98867.41;4305358;33;35352;-73
2022/11/19 02:07:06;;;;;;;26.67;15.75;;;;;;;3.70;79.13;98879.94;4292104;33;33583;-72
2022/11/19 02:09:34;;;;;;;29.12;17.00;;;;;;;4.04;77.71;98889.19;4304439;33;33908;-72
2022/11/19 02:12:12;;;;;;;25.25;15.27;;;;;;;3.98;78.34;98906.19;4280175;33;32310;-73
2022/11/19 02:15:04;;;;;;;25.98;15.88;;;;;;;3.72;79.53;98902.00;4305193;33;34854;-72
2022/11/19 02:17:52;;;;;;;31.77;17.33;;;;;;;3.62;78.64;98897.13;4305015;33;34434;-73
2022/11/19 02:20:22;;;;;;;27.30;16.17;;;;;;;3.47;79.64;98905.56;4292151;33;34083;-72
2022/11/19 02:22:58;;;;;;;30.67;17.67;;;;;;;3.65;78.08;98890.50;4305230;33;34222;-72
2022/11/19 02:25:59;;;;;;;28.65;16.80;;;;;;;3.36;78.28;98898.25;4305146;33;34945;-72
2022/11/19 02:28:50;;;;;;;27.00;15.65;;;;;;;3.93;76.99;98892.66;4290605;33;34672;-72
2022/11/19 02:31:56;;;;;;;31.58;17.17;;;;;;;4.02;76.20;98904.69;4277544;33;34911;-72
2022/11/19 02:34:31;;;;;;;30.52;16.52;;;;;;;3.95;76.07;98922.72;4272581;33;34186;-72
2022/11/19 02:37:06;;;;;;;26.40;16.80;;;;;;;4.11;75.40;98932.88;4290706;33;33979;-72
2022/11/19 02:39:39;;;;;;;30.67;16.27;;;;;;;4.02;75.32;98939.59;4290475;33;33566;-72
2022/11/19 02:42:21;;;;;;;30.52;17.15;;;;;;;3.81;76.19;98945.44;4266066;33;33955;-73
2022/11/19 02:45:02;;;;;;;27.27;16.52;;;;;;;3.94;76.23;98955.19;4285034;33;34006;-72
2022/11/19 02:47:34;;;;;;;27.20;17.40;;;;;;;3.78;75.79;98962.81;4292044;33;34082;-71
2022/11/19 02:50:07;;;;;;;28.92;16.87;;;;;;;3.35;77.41;98962.81;4279836;33;34494;-72
2022/11/19 02:52:35;;;;;;;34.55;18.00;;;;;;;2.88;79.95;98969.41;4305146;33;33895;-73
2022/11/19 02:55:04;;;;;;;30.40;17.60;;;;;;;3.05;79.96;98964.34;4292033;33;34269;-73
2022/11/19 02:57:31;;;;;;;36.33;17.55;;;;;;;2.84;80.38;98962.84;4304785;33;34387;-73
2022/11/19 03:04:28;;;;;;;33.35;18.20;;;;;;;3.11;79.70;98962.66;4280638;33;33926;-72
2022/11/19 03:06:05;;;;;;;29.98;17.40;;;;;;;3.13;79.42;98973.13;4290103;33;35182;-73
2022/11/19 03:08:32;;;;;;;31.45;17.55;;;;;;;3.43;77.66;98992.84;4277438;33;34199;-73
2022/11/19 03:11:20;;;;;;;28.87;16.60;;;;;;;3.28;78.45;98992.38;4277350;33;33796;-73
2022/11/19 03:17:05;;;;;;;30.12;17.12;;;;;;;2.85;80.21;98991.28;4269361;33;34212;-72
2022/11/19 03:19:32;;;;;;;32.92;18.08;;;;;;;3.22;80.46;99001.31;4281568;33;34091;-73
2022/11/19 03:22:04;;;;;;;31.27;18.08;;;;;;;3.20;80.28;99009.56;4304858;33;33776;-73
2022/11/19 03:24:48;;;;;;;34.33;19.42;;;;;;;3.44;79.34;99005.22;4304683;33;33939;-72
2022/11/19 03:27:20;;;;;;;32.23;18.73;;;;;;;3.62;78.46;98993.69;4291705;33;35078;-73
2022/11/19 03:29:49;;;;;;;32.20;17.67;;;;;;;3.74;77.76;99006.38;4291822;33;34068;-72
2022/11/19 03:32:20;;;;;;;29.52;17.52;;;;;;;3.71;77.15;99018.37;4291575;33;33868;-72
2022/11/19 03:34:51;;;;;;;29.85;18.10;;;;;;;4.34;74.86;99009.19;4288123;33;33807;-74
2022/11/19 03:37:20;;;;;;;27.95;17.37;;;;;;;3.89;76.09;99023.75;4277262;33;33980;-73
2022/11/19 03:39:48;;;;;;;29.35;16.33;;;;;;;3.52;77.36;99019.38;4277364;33;34304;-73
2022/11/19 03:42:17;;;;;;;27.85;16.42;;;;;;;3.88;75.75;99023.97;4277293;33;34603;-72
2022/11/19 03:44:47;;;;;;;31.30;17.55;;;;;;;3.73;75.86;99024.34;4277143;33;34659;-73
2022/11/19 03:47:20;;;;;;;30.20;17.60;;;;;;;3.56;76.30;99034.00;4295713;33;34177;-72
2022/11/19 03:49:51;;;;;;;28.27;16.23;;;;;;;3.77;75.32;99035.47;4304471;33;34303;-72
2022/11/19 03:52:20;;;;;;;29.92;16.30;;;;;;;3.82;74.47;99032.91;4291206;33;33758;-73
2022/11/19 03:54:48;;;;;;;31.95;17.35;;;;;;;3.85;74.72;99049.41;4291665;33;34800;-72
2022/11/19 03:57:18;;;;;;;27.98;15.48;;;;;;;3.74;74.38;99041.25;4304536;33;35180;-73
2022/11/19 03:59:45;;;;;;;28.62;16.60;;;;;;;3.79;74.32;99047.59;4279639;33;33331;-73
2022/11/19 04:02:14;;;;;;;27.20;16.35;;;;;;;3.58;74.95;99056.87;4304458;33;33977;-73
2022/11/19 04:04:41;;;;;;;32.35;17.30;;;;;;;3.64;75.02;99052.50;4278383;33;33189;-73
2022/11/19 04:07:17;;;;;;;28.23;15.98;;;;;;;3.75;74.13;99053.63;4291681;33;34082;-73
2022/11/19 04:09:45;;;;;;;28.83;16.48;;;;;;;3.85;74.06;99060.12;4291348;33;34278;-73
2022/11/19 04:12:21;;;;;;;30.40;16.12;;;;;;;4.21;72.11;99071.09;4304276;33;33798;-76
2022/11/19 04:14:49;;;;;;;32.63;17.17;;;;;;;3.73;73.54;99079.88;4304479;33;33782;-84
2022/11/19 04:17:17;;;;;;;30.60;16.73;;;;;;;4.02;72.51;99084.53;4304535;33;34155;-79
2022/11/19 04:19:45;;;;;;;26.23;14.50;;;;;;;3.87;72.57;99082.22;4304207;33;33917;-74
2022/11/19 04:22:12;;;;;;;26.62;15.07;;;;;;;3.89;72.66;99084.69;4303009;33;33591;-76
2022/11/19 04:24:40;;;;;;;30.60;16.83;;;;;;;4.08;72.32;99094.37;4304336;33;34723;-75
2022/11/19 04:27:07;;;;;;;26.92;16.17;;;;;;;3.73;72.89;99102.16;4304286;33;35208;-75
2022/11/19 04:29:35;;;;;;;27.75;16.05;;;;;;;3.50;73.78;99118.88;4304355;33;34347;-75
2022/11/19 04:32:02;;;;;;;24.63;14.70;;;;;;;3.76;73.05;99114.28;4304160;33;33873;-75
2022/11/19 04:34:29;;;;;;;29.85;16.50;;;;;;;3.81;72.27;99123.34;4304507;33;33446;-75
2022/11/19 04:36:57;;;;;;;26.65;15.73;;;;;;;3.64;72.67;99123.06;4303331;33;35083;-75
2022/11/19 04:39:25;;;;;;;31.73;16.55;;;;;;;3.44;73.80;99125.91;4291311;33;33445;-73
2022/11/19 04:41:52;;;;;;;29.45;15.82;;;;;;;3.61;72.58;99133.44;4291105;33;32567;-75
2022/11/19 04:44:20;;;;;;;29.90;17.17;;;;;;;3.29;73.83;99141.47;4291183;33;33988;-75
2022/11/19 04:46:47;;;;;;;32.63;17.77;;;;;;;3.45;73.20;99143.62;4304362;33;34210;-75
2022/11/19 04:49:15;;;;;;;33.70;17.73;;;;;;;3.61;72.90;99157.56;4304291;33;34365;-75
2022/11/19 04:51:43;;;;;;;31.30;17.42;;;;;;;3.34;73.52;99144.31;4304341;33;34528;-75
2022/11/19 04:54:11;;;;;;;28.25;16.73;;;;;;;3.81;72.05;99163.59;4277894;33;33437;-75
2022/11/19 04:56:39;;;;;;;28.50;16.87;;;;;;;3.55;72.48;99169.16;4291658;33;34262;-75
2022/11/19 04:59:07;;;;;;;33.38;16.40;;;;;;;3.10;74.31;99180.78;4291132;33;33938;-75
2022/11/19 05:01:34;;;;;;;31.77;18.05;;;;;;;3.26;74.34;99191.00;4290949;33;34587;-75
2022/11/19 05:04:01;;;;;;;29.05;16.70;;;;;;;3.66;73.63;99196.09;4304141;33;33768;-76
2022/11/19 05:06:29;;;;;;;32.97;18.33;;;;;;;3.95;72.27;99199.16;4304132;33;35164;-73
2022/11/19 05:08:56;;;;;;;30.55;17.70;;;;;;;3.69;72.72;99195.69;4302990;33;34971;-75
2022/11/19 05:11:23;;;;;;;31.37;16.98;;;;;;;3.62;73.00;99205.63;4303950;33;34571;-75
2022/11/19 05:13:51;;;;;;;30.92;17.15;;;;;;;3.93;71.18;99200.44;4304140;33;33859;-75
2022/11/19 05:16:18;;;;;;;30.65;16.98;;;;;;;3.33;73.37;99190.16;4303819;33;34137;-75
2022/11/19 05:18:46;;;;;;;32.15;16.92;;;;;;;3.14;74.22;99198.06;4303969;33;34238;-74
2022/11/19 05:21:13;;;;;;;34.35;18.85;;;;;;;3.73;72.55;99204.09;4304012;33;33760;-75
2022/11/19 05:23:41;;;;;;;33.33;17.87;;;;;;;3.53;72.79;99206.09;4303847;33;34013;-75
2022/11/19 05:26:08;;;;;;;1.45;1.35;;;;;;;3.19;74.60;99206.28;4303006;33;34972;-76
2022/11/19 05:28:36;;;;;;;26.58;15.73;;;;;;;3.34;74.50;99211.34;4304032;33;34291;-75
2022/11/19 05:31:06;;;;;;;28.38;15.93;;;;;;;3.23;74.61;99209.37;4303776;33;33811;-76
2022/11/19 05:33:34;;;;;;;31.62;17.05;;;;;;;2.86;76.03;99207.25;4290787;33;34350;-75
2022/11/19 05:36:02;;;;;;;14.70;7.03;;;;;;;2.80;75.82;99212.62;4287621;33;34218;-72
2022/11/19 05:38:30;;;;;;;31.25;16.77;;;;;;;2.66;77.27;99207.31;4289362;33;34753;-74
2022/11/19 05:40:57;;;;;;;27.55;15.93;;;;;;;3.11;75.46;99221.78;4303529;33;33798;-72
2022/11/19 05:43:24;;;;;;;31.08;16.45;;;;;;;3.19;74.74;99221.53;4302335;33;33856;-71
2022/11/19 05:45:52;;;;;;;30.60;16.65;;;;;;;3.43;73.71;99246.78;4289871;33;33330;-74
2022/11/19 05:48:19;;;;;;;32.45;18.48;;;;;;;3.69;71.87;99243.97;4303491;33;34367;-74
2022/11/19 05:50:47;;;;;;;34.72;18.62;;;;;;;3.66;71.37;99238.22;4303459;33;34593;-74
2022/11/19 05:53:14;;;;;;;9.18;5.57;;;;;;;3.57;71.75;99258.28;4289683;33;33810;-73
2022/11/19 05:55:41;;;;;;;36.97;19.45;;;;;;;3.33;72.67;99252.63;4303145;33;33969;-74
2022/11/19 05:58:09;;;;;;;31.42;17.23;;;;;;;2.96;74.18;99251.53;4302415;33;34306;-73
2022/11/19 06:00:36;;;;;;;28.38;16.60;;;;;;;2.90;75.24;99261.25;4303217;33;34586;-73
2022/11/19 06:03:04;;;;;;;32.58;17.30;;;;;;;3.02;75.21;99261.41;4303135;33;33694;-74
2022/11/19 06:05:31;;;;;;;14.32;8.65;;;;;;;3.22;74.96;99270.22;4302956;33;34205;-73
2022/11/19 06:08:06;;;;;;;34.80;20.70;;;;;;;3.52;73.01;99271.50;4302915;33;33825;-73
2022/11/19 06:10:33;;;;;;;37.10;20.10;;;;;;;2.96;74.75;99287.22;4303237;33;33756;-74
2022/11/19 06:13:01;;;;;;;35.35;19.35;;;;;;;3.40;72.93;99276.72;4289753;33;34359;-74
2022/11/19 06:15:28;;;;;;;37.90;22.60;;;;;;;3.08;74.75;99284.69;4301734;33;35186;-72
2022/11/19 06:17:56;;;;;;;41.00;22.05;;;;;;;3.25;74.65;99296.59;4302197;33;34319;-72
2022/11/19 06:20:23;;;;;;;37.90;21.70;;;;;;;3.00;75.76;99309.88;4303386;33;33760;-74
2022/11/19 06:22:51;;;;;;;41.85;22.62;;;;;;;3.19;75.32;99312.69;4303065;33;33561;-73
2022/11/19 06:25:19;;;;;;;33.72;20.10;;;;;;;3.24;74.35;99304.81;4302829;33;35070;-71
2022/11/19 06:27:46;;;;;;;33.95;19.52;;;;;;;3.00;74.91;99307.19;4303108;33;34796;-74
2022/11/19 06:30:15;;;;;;;38.20;20.27;;;;;;;2.66;76.59;99305.63;4302949;33;33334;-73
2022/11/19 06:32:42;;;;;;;35.65;19.27;;;;;;;2.57;77.35;99314.87;4288868;33;34673;-73
2022/11/19 06:35:10;;;;;;;32.58;18.80;;;;;;;2.70;77.16;99312.22;4289620;33;33965;-73
2022/11/19 06:37:40;;;;;;;31.98;18.37;;;;;;;3.23;75.77;99317.41;4302751;33;34148;-72
2022/11/19 06:40:08;;;;;;;35.95;19.17;;;;;;;3.34;74.61;99318.62;4302974;33;33778;-75
2022/11/19 06:42:35;;;;;;;38.95;21.80;;;;;;;3.68;73.46;99327.34;4292175;33;33928;-74
2022/11/19 06:45:09;;;;;;;38.45;22.77;;;;;;;3.86;72.61;99319.38;4290329;33;34198;-78
2022/11/19 06:47:37;;;;;;;42.30;23.45;;;;;;;3.64;73.75;99324.25;4291162;33;34755;-75
2022/11/19 06:50:06;;;;;;;40.78;22.02;;;;;;;3.47;74.01;99334.66;4278396;33;32951;-77
2022/11/19 06:52:34;;;;;;;34.80;19.85;;;;;;;2.93;77.48;99324.31;4282131;33;33907;-75
2022/11/19 06:55:01;;;;;;;34.60;19.25;;;;;;;3.40;75.56;99331.19;4279951;33;34921;-71
2022/11/19 06:57:29;;;;;;;32.78;18.20;;;;;;;3.72;74.97;99325.06;4289746;33;34906;-76
2022/11/19 07:00:15;;;;;;;34.20;18.77;;;;;;;3.62;75.05;99328.19;4290085;33;34537;-70
2022/11/19 07:02:42;;;;;;;31.92;17.87;;;;;;;3.83;74.10;99330.56;4289919;33;33934;-76
2022/11/19 07:05:10;;;;;;;31.40;17.75;;;;;;;3.66;74.68;99327.56;4289916;33;34287;-71
2022/11/19 07:07:37;;;;;;;32.72;17.35;;;;;;;3.73;73.83;99332.06;4302529;33;34338;-71
2022/11/19 07:10:06;;;;;;;29.80;16.70;;;;;;;4.00;73.46;99343.50;4304258;33;33865;-76
2022/11/19 07:12:33;;;;;;;30.27;17.40;;;;;;;3.63;74.24;99338.72;4304041;33;33806;-73
2022/11/19 07:15:01;;;;;;;32.67;19.48;;;;;;;3.78;74.60;99348.34;4290897;33;33445;-71
2022/11/19 07:17:31;;;;;;;33.20;18.95;;;;;;;3.60;73.96;99339.13;4291285;33;33191;-72
2022/11/19 07:19:58;;;;;;;32.10;18.00;;;;;;;4.03;73.17;99345.72;4279555;33;32659;-71
2022/11/19 07:22:26;;;;;;;33.47;18.40;;;;;;;4.10;71.75;99343.81;4282122;33;33806;-72
2022/11/19 07:24:53;;;;;;;34.17;18.87;;;;;;;4.54;69.88;99346.63;4291331;33;33930;-72
2022/11/19 07:27:21;;;;;;;33.67;19.15;;;;;;;4.08;69.73;99349.41;4304553;33;34290;-74
2022/11/19 07:29:48;;;;;;;34.85;18.87;;;;;;;3.96;71.06;99358.38;4304629;33;34462;-76
2022/11/19 07:32:16;;;;;;;35.63;19.50;;;;;;;4.01;71.65;99358.53;4303985;33;34037;-78
2022/11/19 07:34:43;;;;;;;35.90;18.80;;;;;;;4.22;70.48;99358.19;4291024;33;33134;-79
2022/11/19 07:37:10;;;;;;;35.75;18.67;;;;;;;4.51;69.80;99356.75;4304726;33;34149;-76
2022/11/19 07:39:38;;;;;;;32.55;18.77;;;;;;;4.79;69.88;99360.84;4290445;33;34750;-75
2022/11/19 07:44:51;;;;;;;32.80;18.65;;;;;;;5.70;66.90;99351.19;4304242;33;33649;-73
2022/11/19 07:47:21;;;;;;;30.42;16.98;;;;;;;6.02;65.71;99347.47;4291311;33;34074;-81
2022/11/19 07:49:48;;;;;;;31.35;17.23;;;;;;;5.94;66.03;99349.44;4298650;33;33789;-79
2022/11/19 07:52:16;;;;;;;32.00;17.37;;;;;;;6.15;64.26;99350.81;4301922;33;33781;-79
2022/11/19 07:54:44;;;;;;;33.65;16.90;;;;;;;6.47;61.74;99339.75;4303613;33;34297;-76
2022/11/19 07:57:11;;;;;;;29.15;16.35;;;;;;;6.36;61.36;99360.22;4302544;33;34111;-79
2022/11/19 07:59:39;;;;;;;29.58;16.02;;;;;;;6.04;62.93;99356.97;4304048;33;33864;-80
2022/11/19 08:02:10;;;;;;;28.62;16.62;;;;;;;5.65;63.02;99356.41;4291036;33;33868;-72
2022/11/19 08:04:37;;;;;;;30.88;16.77;;;;;;;5.43;64.07;99353.37;4290690;33;34215;-72
2022/11/19 08:07:05;;;;;;;29.40;17.48;;;;;;;5.60;66.27;99355.47;4304253;33;34010;-81
2022/11/19 08:09:33;;;;;;;29.95;17.90;;;;;;;6.07;65.79;99356.53;4304307;33;33744;-75
2022/11/19 08:12:00;;;;;;;30.35;16.80;;;;;;;6.39;62.46;99367.00;4290845;33;33866;-76
2022/11/19 08:14:27;;;;;;;29.25;17.35;;;;;;;6.67;59.24;99360.16;4289693;33;33961;-74
2022/11/19 08:19:41;;;;;;;29.75;16.90;;;;;;;5.20;66.25;99372.03;4303163;33;33568;-75
2022/11/19 08:22:11;;;;;;;25.98;15.38;;;;;;;5.65;65.64;99374.44;4291266;33;34654;-73
2022/11/19 08:24:39;;;;;;;30.77;17.35;;;;;;;5.97;66.63;99379.66;4300875;33;35027;-74
2022/11/19 08:27:06;;;;;;;28.87;17.30;;;;;;;6.00;64.68;99388.09;4289929;33;34105;-73
2022/11/19 08:29:34;;;;;;;31.55;17.08;;;;;;;6.70;65.49;99387.47;4297044;33;33621;-75
2022/11/19 08:32:01;;;;;;;29.77;16.85;;;;;;;6.67;64.93;99387.12;4303788;33;33994;-76
2022/11/19 08:34:30;;;;;;;31.95;17.80;;;;;;;6.48;63.52;99395.31;4276094;33;34184;-76
2022/11/19 08:36:58;;;;;;;30.58;16.33;;;;;;;6.16;63.79;99406.31;4276586;33;34409;-75
2022/11/19 08:39:25;;;;;;;27.85;16.42;;;;;;;5.86;64.96;99410.84;4289599;33;33911;-75
2022/11/19 08:44:39;;;;;;;26.40;15.93;;;;;;;6.80;61.88;99410.34;4289048;33;34164;-74
2022/11/19 08:47:06;;;;;;;27.52;16.67;;;;;;;8.04;57.94;99420.91;4289766;33;34233;-75
2022/11/19 08:49:34;;;;;;;28.62;16.58;;;;;;;7.31;59.03;99430.44;4276458;33;33812;-76
2022/11/19 08:52:01;;;;;;;24.75;15.68;;;;;;;8.02;56.86;99421.16;4289460;33;34069;-75
2022/11/19 08:54:29;;;;;;;24.65;15.20;;;;;;;7.87;55.77;99404.63;4289958;33;34252;-76
2022/11/19 08:56:56;;;;;;;26.23;16.02;;;;;;;8.22;57.02;99388.28;4303768;33;34156;-76
2022/11/19 08:59:23;;;;;;;26.80;15.68;;;;;;;7.69;57.95;99399.37;4303813;33;34516;-76
2022/11/19 09:01:51;;;;;;;28.38;16.15;;;;;;;8.38;58.86;99437.22;4302923;33;34803;-77
2022/11/19 09:04:18;;;;;;;28.98;15.52;;;;;;;8.60;56.95;99459.03;4303907;33;34777;-75
2022/11/19 09:06:46;;;;;;;28.75;16.25;;;;;;;8.70;55.73;99480.00;4303564;33;34054;-77
2022/11/19 09:09:14;;;;;;;25.92;15.60;;;;;;;9.08;56.16;99482.03;4304272;33;33884;-77
2022/11/19 09:11:41;;;;;;;26.35;15.15;;;;;;;7.70;55.38;99482.87;4304033;33;34179;-77
2022/11/19 09:14:09;;;;;;;23.98;14.65;;;;;;;8.12;58.33;99481.84;4292623;33;34170;-77
2022/11/19 09:16:37;;;;;;;26.05;15.65;;;;;;;8.02;58.33;99486.00;4289565;33;35082;-77
2022/11/19 09:19:04;;;;;;;24.83;15.30;;;;;;;7.48;59.31;99487.25;4299925;33;34613;-76
2022/11/19 09:21:32;;;;;;;27.77;15.57;;;;;;;9.11;54.45;99491.53;4303800;33;33805;-76
2022/11/19 09:23:59;;;;;;;26.67;15.45;;;;;;;9.15;53.27;99481.88;4303580;33;34344;-77
2022/11/19 09:26:26;;;;;;;29.08;16.80;;;;;;;8.58;55.88;99486.31;4298969;33;34164;-75
2022/11/19 09:28:54;;;;;;;27.15;15.73;;;;;;;7.49;58.91;99476.19;4291258;33;33659;-73
2022/11/19 09:31:21;;;;;;;29.15;15.82;;;;;;;8.14;59.06;99488.69;4309781;33;33839;-74
2022/11/19 09:33:51;;;;;;;26.42;15.50;;;;;;;7.37;58.97;99492.41;4316219;33;34266;-74
2022/11/19 09:36:19;;;;;;;28.60;16.50;;;;;;;7.29;58.98;99483.81;4318239;33;34272;-74
2022/11/19 09:38:47;;;;;;;29.40;16.02;;;;;;;7.28;60.51;99483.00;4305353;33;34356;-74
2022/11/19 09:41:39;;;;;;;29.65;16.95;;;;;;;8.14;55.86;99483.28;4304328;33;34687;-74
2022/11/19 09:44:18;;;;;;;27.62;16.70;;;;;;;7.32;59.49;99494.97;4304870;33;34918;-74
2022/11/19 09:46:58;;;;;;;30.42;16.48;;;;;;;8.02;57.22;99498.69;4288840;33;33415;-74
2022/11/19 09:49:41;;;;;;;27.37;16.58;;;;;;;8.12;58.39;99506.16;4278792;33;33220;-74
2022/11/19 09:52:13;;;;;;;28.17;17.35;;;;;;;8.27;56.92;99520.03;4303787;33;34599;-74
2022/11/19 09:54:55;;;;;;;27.73;16.62;;;;;;;8.13;58.76;99516.75;4292535;33;34024;-74
2022/11/19 09:57:43;;;;;;;25.98;15.68;;;;;;;8.18;58.72;99513.31;4304703;33;34160;-75
2022/11/19 10:00:16;;;;;;;28.25;16.83;;;;;;;8.19;58.26;99513.09;4295547;33;34365;-74
2022/11/19 10:02:43;;;;;;;30.48;17.98;;;;;;;6.92;62.06;99519.06;4290049;33;33638;-75
2022/11/19 10:05:18;;;;;;;28.40;16.58;;;;;;;7.02;59.60;99510.41;4301996;33;33849;-75
2022/11/19 10:08:01;;;;;;;28.55;17.70;;;;;;;7.40;59.83;99502.72;4276895;33;34274;-75
2022/11/19 10:10:50;;;;;;;29.87;17.30;;;;;;;7.11;61.96;99507.16;4289016;33;33740;-73
2022/11/19 10:13:46;;;;;;;28.65;16.90;;;;;;;6.36;61.66;99502.22;4274647;33;32614;-74
2022/11/19 10:16:29;;;;;;;28.70;16.73;;;;;;;7.06;61.56;99490.84;4273232;33;34089;-73
2022/11/19 10:19:09;;;;;;;28.67;16.98;;;;;;;6.62;63.67;99492.13;4289609;33;34155;-74
2022/11/19 10:21:52;;;;;;;30.88;18.58;;;;;;;5.60;63.33;99485.47;4279769;33;34161;-73
2022/11/19 10:24:29;;;;;;;32.15;18.45;;;;;;;5.46;67.08;99484.75;4315133;33;33948;-73
2022/11/19 10:27:01;;;;;;;30.05;18.25;;;;;;;5.60;65.77;99476.56;4291716;33;35161;-75
2022/11/19 10:29:37;;;;;;;35.45;19.48;;;;;;;4.96;64.92;99481.28;4292388;33;34840;-73
2022/11/19 10:32:19;;;;;;;32.22;19.50;;;;;;;4.35;67.43;99493.44;4291230;33;33753;-74
2022/11/19 10:34:48;;;;;;;35.22;19.23;;;;;;;5.40;66.70;99484.81;4304878;33;33972;-74
2022/11/19 10:37:17;;;;;;;34.30;18.70;;;;;;;6.02;64.67;99485.63;4294321;33;34184;-73
2022/11/19 10:39:59;;;;;;;30.40;18.12;;;;;;;6.21;63.14;99486.44;4305793;33;33642;-74
2022/11/19 10:42:37;;;;;;;33.50;18.45;;;;;;;6.47;64.13;99487.16;4319045;33;33773;-75
2022/11/19 10:45:18;;;;;;;33.45;17.70;;;;;;;6.31;63.10;99483.22;4291802;33;33919;-73
2022/11/19 10:48:18;;;;;;;32.75;18.25;;;;;;;6.71;62.12;99478.09;4288145;33;34996;-83
2022/11/19 10:50:46;;;;;;;34.58;19.40;;;;;;;6.89;62.69;99474.50;4284611;33;33256;-71
2022/11/19 10:53:30;;;;;;;29.25;16.98;;;;;;;6.87;63.91;99475.78;4291011;33;32990;-72
2022/11/19 10:56:10;;;;;;;35.63;20.45;;;;;;;7.15;61.78;99467.87;4295788;33;33886;-76
2022/11/19 10:58:46;;;;;;;30.00;18.17;;;;;;;7.21;61.50;99484.16;4287104;33;34751;-73
2022/11/19 11:01:23;;;;;;;34.05;18.90;;;;;;;7.33;59.78;99487.69;4298975;33;34329;-77
2022/11/19 11:03:58;;;;;;;33.85;19.17;;;;;;;7.22;62.54;99502.00;4295452;33;33610;-78
2022/11/19 11:06:26;;;;;;;28.90;17.02;;;;;;;7.27;61.67;99502.94;4290268;33;33754;-78
2022/11/19 11:08:54;;;;;;;33.00;18.42;;;;;;;7.13;60.71;99504.22;4294179;33;35065;-78
2022/11/19 11:14:50;;;;;;;28.85;17.58;;;;;;;7.21;60.71;99508.44;4290781;33;34997;-78
2022/11/19 11:17:05;;;;;;;30.50;18.23;;;;;;;7.44;61.25;99519.28;4293513;33;33927;-77
2022/11/19 11:19:32;;;;;;;35.30;19.23;;;;;;;6.92;62.58;99519.06;4291327;33;34093;-77
2022/11/19 11:22:00;;;;;;;29.63;17.65;;;;;;;6.79;61.51;99520.09;4304233;33;34746;-78
2022/11/19 11:24:32;;;;;;;33.40;18.67;;;;;;;6.77;63.11;99531.09;4303485;33;33827;-78
2022/11/19 11:27:29;;;;;;;33.10;19.27;;;;;;;5.97;64.95;99528.59;4288234;33;141985;-79
2022/11/19 11:30:26;;;;;;;35.65;19.90;;;;;;;6.58;62.99;99529.50;4304001;33;33976;-77
2022/11/19 11:32:54;;;;;;;34.30;19.75;;;;;;;5.83;65.07;99529.72;4280146;33;34220;-78
2022/11/19 11:35:35;;;;;;;38.20;20.98;;;;;;;6.43;64.11;99532.59;4291512;33;34645;-76
2022/11/19 11:38:04;;;;;;;36.53;20.15;;;;;;;5.99;65.50;99526.50;4291724;33;34629;-78
2022/11/19 11:40:31;;;;;;;35.40;20.48;;;;;;;6.29;62.15;99518.47;4291361;33;34014;-77
2022/11/19 11:42:58;;;;;;;34.20;19.52;;;;;;;5.83;65.43;99509.03;4286689;33;33920;-76
2022/11/19 11:45:31;;;;;;;38.75;22.05;;;;;;;6.82;63.46;99516.91;4265656;33;33032;-76
2022/11/19 11:48:18;;;;;;;33.85;20.70;;;;;;;6.81;63.90;99514.47;4277115;33;34768;-77
2022/11/19 11:50:46;;;;;;;35.38;20.23;;;;;;;6.59;63.16;99514.97;4277149;33;35203;-77
2022/11/19 11:53:15;;;;;;;35.10;19.30;;;;;;;5.30;65.21;99518.44;4290154;33;34245;-78
2022/11/19 11:55:42;;;;;;;38.50;21.75;;;;;;;5.25;68.61;99509.38;4290302;33;34559;-78
2022/11/19 11:58:31;;;;;;;34.53;20.80;;;;;;;5.54;66.46;99499.78;4290138;33;34952;-78
2022/11/19 12:01:18;;;;;;;36.45;21.23;;;;;;;5.88;65.56;99519.94;4299487;33;35031;-77
2022/11/19 12:03:56;;;;;;;36.60;21.87;;;;;;;6.15;65.10;99515.13;4291615;33;34251;-78